sensor_id;sensor_type;location;lat;lon;timestamp;temperature;humidity
81895;DHT22;71358;45.642;13.758;2023-11-18T00:01:01;23.10;47.10
81895;DHT22;71358;45.642;13.758;2023-11-18T00:03:45;23.10;47.10
81895;DHT22;71358;45.642;13.758;2023-11-18T00:06:30;23.10;47.00
81895;DHT22;71358;45.642;13.758;2023-11-18T00:09:14;23.10;46.90
81895;DHT22;71358;45.642;13.758;2023-11-18T00:11:59;23.10;46.90
81895;DHT22;71358;45.642;13.758;2023-11-18T00:14:44;23.10;46.90
81895;DHT22;71358;45.642;13.758;2023-11-18T00:17:32;23.10;46.90
81895;DHT22;71358;45.642;13.758;2023-11-18T00:20:17;23.10;46.90
81895;DHT22;71358;45.642;13.758;2023-11-18T00:23:02;23.00;46.80
81895;DHT22;71358;45.642;13.758;2023-11-18T00:25:48;23.00;46.90
81895;DHT22;71358;45.642;13.758;2023-11-18T00:28:33;23.10;46.90
81895;DHT22;71358;45.642;13.758;2023-11-18T00:31:17;23.10;47.10
81895;DHT22;71358;45.642;13.758;2023-11-18T00:34:02;23.10;47.20
81895;DHT22;71358;45.642;13.758;2023-11-18T00:36:46;23.10;47.30
81895;DHT22;71358;45.642;13.758;2023-11-18T00:39:31;23.10;47.30
81895;DHT22;71358;45.642;13.758;2023-11-18T00:42:15;23.00;47.30
81895;DHT22;71358;45.642;13.758;2023-11-18T00:45:00;23.00;47.40
81895;DHT22;71358;45.642;13.758;2023-11-18T00:47:45;23.00;47.40
81895;DHT22;71358;45.642;13.758;2023-11-18T00:50:29;23.00;47.40
81895;DHT22;71358;45.642;13.758;2023-11-18T00:53:14;23.00;47.40
81895;DHT22;71358;45.642;13.758;2023-11-18T00:55:59;23.00;47.30
81895;DHT22;71358;45.642;13.758;2023-11-18T00:58:45;23.00;47.20
81895;DHT22;71358;45.642;13.758;2023-11-18T01:01:29;23.00;47.00
81895;DHT22;71358;45.642;13.758;2023-11-18T01:04:14;23.00;47.00
81895;DHT22;71358;45.642;13.758;2023-11-18T01:06:58;23.00;46.90
81895;DHT22;71358;45.642;13.758;2023-11-18T01:09:43;23.00;46.80
81895;DHT22;71358;45.642;13.758;2023-11-18T01:12:27;23.00;46.70
81895;DHT22;71358;45.642;13.758;2023-11-18T01:15:12;23.00;46.60
81895;DHT22;71358;45.642;13.758;2023-11-18T01:17:57;23.00;46.60
81895;DHT22;71358;45.642;13.758;2023-11-18T01:20:42;23.00;46.50
81895;DHT22;71358;45.642;13.758;2023-11-18T01:23:26;23.00;46.60
81895;DHT22;71358;45.642;13.758;2023-11-18T01:26:12;23.00;46.60
81895;DHT22;71358;45.642;13.758;2023-11-18T01:28:57;23.00;46.70
81895;DHT22;71358;45.642;13.758;2023-11-18T01:31:41;22.90;46.60
81895;DHT22;71358;45.642;13.758;2023-11-18T01:34:26;22.90;46.50
81895;DHT22;71358;45.642;13.758;2023-11-18T01:37:12;22.90;46.50
81895;DHT22;71358;45.642;13.758;2023-11-18T01:39:57;22.90;46.50
81895;DHT22;71358;45.642;13.758;2023-11-18T01:42:43;22.90;46.50
81895;DHT22;71358;45.642;13.758;2023-11-18T01:45:27;22.90;46.40
81895;DHT22;71358;45.642;13.758;2023-11-18T01:48:12;22.90;46.40
81895;DHT22;71358;45.642;13.758;2023-11-18T01:50:58;22.90;46.50
81895;DHT22;71358;45.642;13.758;2023-11-18T01:53:43;22.90;46.50
81895;DHT22;71358;45.642;13.758;2023-11-18T01:56:28;22.90;46.50
81895;DHT22;71358;45.642;13.758;2023-11-18T01:59:13;22.90;47.20
81895;DHT22;71358;45.642;13.758;2023-11-18T02:02:02;22.90;46.50
81895;DHT22;71358;45.642;13.758;2023-11-18T02:04:47;22.90;46.50
81895;DHT22;71358;45.642;13.758;2023-11-18T02:07:33;22.90;46.50
81895;DHT22;71358;45.642;13.758;2023-11-18T02:10:18;22.90;46.40
81895;DHT22;71358;45.642;13.758;2023-11-18T02:15:52;22.90;46.30
81895;DHT22;71358;45.642;13.758;2023-11-18T02:18:38;22.90;46.20
81895;DHT22;71358;45.642;13.758;2023-11-18T02:21:26;22.90;46.20
81895;DHT22;71358;45.642;13.758;2023-11-18T02:24:33;22.90;46.30
81895;DHT22;71358;45.642;13.758;2023-11-18T02:27:20;22.90;46.40
81895;DHT22;71358;45.642;13.758;2023-11-18T02:30:09;22.80;46.40
81895;DHT22;71358;45.642;13.758;2023-11-18T02:33:22;22.80;46.20
81895;DHT22;71358;45.642;13.758;2023-11-18T02:36:13;22.90;46.20
81895;DHT22;71358;45.642;13.758;2023-11-18T02:39:00;22.80;46.20
81895;DHT22;71358;45.642;13.758;2023-11-18T02:41:48;22.80;46.20
81895;DHT22;71358;45.642;13.758;2023-11-18T02:44:35;22.80;46.20
81895;DHT22;71358;45.642;13.758;2023-11-18T02:47:20;22.80;46.10
81895;DHT22;71358;45.642;13.758;2023-11-18T02:50:06;22.80;46.30
81895;DHT22;71358;45.642;13.758;2023-11-18T02:52:55;22.80;46.20
81895;DHT22;71358;45.642;13.758;2023-11-18T02:55:39;22.80;46.30
81895;DHT22;71358;45.642;13.758;2023-11-18T02:58:25;22.80;46.30
81895;DHT22;71358;45.642;13.758;2023-11-18T03:01:10;22.80;46.20
81895;DHT22;71358;45.642;13.758;2023-11-18T03:03:55;22.80;46.10
81895;DHT22;71358;45.642;13.758;2023-11-18T03:06:41;22.80;46.10
81895;DHT22;71358;45.642;13.758;2023-11-18T03:09:26;22.80;46.10
81895;DHT22;71358;45.642;13.758;2023-11-18T03:12:12;22.70;46.10
81895;DHT22;71358;45.642;13.758;2023-11-18T03:14:56;22.70;46.20
81895;DHT22;71358;45.642;13.758;2023-11-18T03:17:46;22.80;46.30
81895;DHT22;71358;45.642;13.758;2023-11-18T03:20:33;22.70;46.30
81895;DHT22;71358;45.642;13.758;2023-11-18T03:23:18;22.70;46.30
81895;DHT22;71358;45.642;13.758;2023-11-18T03:26:02;22.70;46.30
81895;DHT22;71358;45.642;13.758;2023-11-18T03:28:47;22.70;46.20
81895;DHT22;71358;45.642;13.758;2023-11-18T03:31:31;22.70;46.20
81895;DHT22;71358;45.642;13.758;2023-11-18T03:34:16;22.70;46.10
81895;DHT22;71358;45.642;13.758;2023-11-18T03:37:04;22.70;46.10
81895;DHT22;71358;45.642;13.758;2023-11-18T03:39:49;22.70;46.10
81895;DHT22;71358;45.642;13.758;2023-11-18T03:42:33;22.70;46.10
81895;DHT22;71358;45.642;13.758;2023-11-18T03:45:21;22.70;46.10
81895;DHT22;71358;45.642;13.758;2023-11-18T03:48:07;22.70;46.10
81895;DHT22;71358;45.642;13.758;2023-11-18T03:50:51;22.70;46.20
81895;DHT22;71358;45.642;13.758;2023-11-18T03:53:36;22.70;46.20
81895;DHT22;71358;45.642;13.758;2023-11-18T03:56:21;22.70;46.30
81895;DHT22;71358;45.642;13.758;2023-11-18T03:59:06;22.70;46.40
81895;DHT22;71358;45.642;13.758;2023-11-18T04:01:50;22.70;46.50
81895;DHT22;71358;45.642;13.758;2023-11-18T04:04:35;22.70;46.60
81895;DHT22;71358;45.642;13.758;2023-11-18T04:07:20;22.70;46.50
81895;DHT22;71358;45.642;13.758;2023-11-18T04:10:06;22.70;46.40
81895;DHT22;71358;45.642;13.758;2023-11-18T04:12:52;22.70;46.40
81895;DHT22;71358;45.642;13.758;2023-11-18T04:15:36;22.70;46.30
81895;DHT22;71358;45.642;13.758;2023-11-18T04:18:21;22.70;46.20
81895;DHT22;71358;45.642;13.758;2023-11-18T04:21:05;22.60;46.00
81895;DHT22;71358;45.642;13.758;2023-11-18T04:23:50;22.60;45.90
81895;DHT22;71358;45.642;13.758;2023-11-18T04:26:35;22.60;45.80
81895;DHT22;71358;45.642;13.758;2023-11-18T04:29:19;22.60;45.90
81895;DHT22;71358;45.642;13.758;2023-11-18T04:32:06;22.60;45.90
81895;DHT22;71358;45.642;13.758;2023-11-18T04:34:52;22.60;45.90
81895;DHT22;71358;45.642;13.758;2023-11-18T04:37:37;22.60;45.80
81895;DHT22;71358;45.642;13.758;2023-11-18T04:40:22;22.60;45.70
81895;DHT22;71358;45.642;13.758;2023-11-18T04:43:07;22.60;45.70
81895;DHT22;71358;45.642;13.758;2023-11-18T04:45:52;22.60;45.70
81895;DHT22;71358;45.642;13.758;2023-11-18T04:48:37;22.60;45.70
81895;DHT22;71358;45.642;13.758;2023-11-18T04:51:22;22.60;45.60
81895;DHT22;71358;45.642;13.758;2023-11-18T04:54:09;22.60;45.60
81895;DHT22;71358;45.642;13.758;2023-11-18T04:56:54;22.60;45.50
81895;DHT22;71358;45.642;13.758;2023-11-18T04:59:39;22.60;45.50
81895;DHT22;71358;45.642;13.758;2023-11-18T05:02:23;22.60;45.50
81895;DHT22;71358;45.642;13.758;2023-11-18T05:05:09;22.60;45.40
81895;DHT22;71358;45.642;13.758;2023-11-18T05:07:53;22.60;45.50
81895;DHT22;71358;45.642;13.758;2023-11-18T05:10:38;22.50;45.40
81895;DHT22;71358;45.642;13.758;2023-11-18T05:13:22;22.50;45.40
81895;DHT22;71358;45.642;13.758;2023-11-18T05:16:08;22.50;45.30
81895;DHT22;71358;45.642;13.758;2023-11-18T05:18:54;22.50;45.30
81895;DHT22;71358;45.642;13.758;2023-11-18T05:21:39;22.50;45.30
81895;DHT22;71358;45.642;13.758;2023-11-18T05:24:23;22.50;45.40
81895;DHT22;71358;45.642;13.758;2023-11-18T05:27:08;22.50;45.40
81895;DHT22;71358;45.642;13.758;2023-11-18T05:29:53;22.50;45.40
81895;DHT22;71358;45.642;13.758;2023-11-18T05:32:43;22.50;45.30
81895;DHT22;71358;45.642;13.758;2023-11-18T05:35:27;22.50;45.30
81895;DHT22;71358;45.642;13.758;2023-11-18T05:38:12;22.50;45.30
81895;DHT22;71358;45.642;13.758;2023-11-18T05:40:57;22.50;45.30
81895;DHT22;71358;45.642;13.758;2023-11-18T05:43:43;22.50;45.30
81895;DHT22;71358;45.642;13.758;2023-11-18T05:46:35;22.50;45.40
81895;DHT22;71358;45.642;13.758;2023-11-18T05:49:20;22.50;45.40
81895;DHT22;71358;45.642;13.758;2023-11-18T05:52:07;22.50;45.30
81895;DHT22;71358;45.642;13.758;2023-11-18T05:54:51;22.50;45.30
81895;DHT22;71358;45.642;13.758;2023-11-18T05:57:35;22.50;45.40
81895;DHT22;71358;45.642;13.758;2023-11-18T06:00:20;22.50;45.30
81895;DHT22;71358;45.642;13.758;2023-11-18T06:03:05;22.50;45.30
81895;DHT22;71358;45.642;13.758;2023-11-18T06:05:50;22.50;45.60
81895;DHT22;71358;45.642;13.758;2023-11-18T06:08:36;22.40;45.20
81895;DHT22;71358;45.642;13.758;2023-11-18T06:11:25;22.50;45.20
81895;DHT22;71358;45.642;13.758;2023-11-18T06:14:09;22.40;45.20
81895;DHT22;71358;45.642;13.758;2023-11-18T06:16:54;22.50;45.20
81895;DHT22;71358;45.642;13.758;2023-11-18T06:19:38;22.40;45.10
81895;DHT22;71358;45.642;13.758;2023-11-18T06:22:23;22.40;45.20
81895;DHT22;71358;45.642;13.758;2023-11-18T06:25:08;22.40;45.20
81895;DHT22;71358;45.642;13.758;2023-11-18T06:27:52;22.40;45.30
81895;DHT22;71358;45.642;13.758;2023-11-18T06:30:37;22.40;45.30
81895;DHT22;71358;45.642;13.758;2023-11-18T06:33:22;22.40;45.20
81895;DHT22;71358;45.642;13.758;2023-11-18T06:36:07;22.40;45.20
81895;DHT22;71358;45.642;13.758;2023-11-18T06:38:52;22.40;45.20
81895;DHT22;71358;45.642;13.758;2023-11-18T06:41:37;22.40;45.20
81895;DHT22;71358;45.642;13.758;2023-11-18T06:44:32;22.40;45.20
81895;DHT22;71358;45.642;13.758;2023-11-18T06:47:18;22.40;45.20
81895;DHT22;71358;45.642;13.758;2023-11-18T06:50:04;22.40;45.40
81895;DHT22;71358;45.642;13.758;2023-11-18T06:52:48;22.40;45.70
81895;DHT22;71358;45.642;13.758;2023-11-18T06:55:34;22.40;46.00
81895;DHT22;71358;45.642;13.758;2023-11-18T06:58:19;22.40;46.00
81895;DHT22;71358;45.642;13.758;2023-11-18T07:01:04;22.40;46.10
81895;DHT22;71358;45.642;13.758;2023-11-18T07:03:49;22.40;46.20
81895;DHT22;71358;45.642;13.758;2023-11-18T07:06:37;22.40;46.20
81895;DHT22;71358;45.642;13.758;2023-11-18T07:09:25;22.40;46.10
81895;DHT22;71358;45.642;13.758;2023-11-18T07:12:10;22.40;46.20
81895;DHT22;71358;45.642;13.758;2023-11-18T07:14:54;22.40;46.30
81895;DHT22;71358;45.642;13.758;2023-11-18T07:17:39;22.40;46.30
81895;DHT22;71358;45.642;13.758;2023-11-18T07:20:23;22.40;46.30
81895;DHT22;71358;45.642;13.758;2023-11-18T07:23:08;22.30;46.30
81895;DHT22;71358;45.642;13.758;2023-11-18T07:25:52;22.30;46.20
81895;DHT22;71358;45.642;13.758;2023-11-18T07:28:37;22.30;46.30
81895;DHT22;71358;45.642;13.758;2023-11-18T07:31:22;22.30;46.30
81895;DHT22;71358;45.642;13.758;2023-11-18T07:34:06;22.30;46.30
81895;DHT22;71358;45.642;13.758;2023-11-18T07:36:51;22.30;46.40
81895;DHT22;71358;45.642;13.758;2023-11-18T07:39:36;22.30;46.40
81895;DHT22;71358;45.642;13.758;2023-11-18T07:42:32;22.30;46.50
81895;DHT22;71358;45.642;13.758;2023-11-18T07:45:19;22.30;46.50
81895;DHT22;71358;45.642;13.758;2023-11-18T07:48:05;22.30;46.50
81895;DHT22;71358;45.642;13.758;2023-11-18T07:50:50;22.30;46.60
81895;DHT22;71358;45.642;13.758;2023-11-18T07:53:35;22.30;46.50
81895;DHT22;71358;45.642;13.758;2023-11-18T07:56:22;22.30;46.40
81895;DHT22;71358;45.642;13.758;2023-11-18T07:59:07;22.30;46.20
81895;DHT22;71358;45.642;13.758;2023-11-18T08:01:52;22.30;46.10
81895;DHT22;71358;45.642;13.758;2023-11-18T08:04:37;22.30;46.00
81895;DHT22;71358;45.642;13.758;2023-11-18T08:07:22;22.30;46.00
81895;DHT22;71358;45.642;13.758;2023-11-18T08:10:07;22.30;45.90
81895;DHT22;71358;45.642;13.758;2023-11-18T08:12:57;22.30;45.90
81895;DHT22;71358;45.642;13.758;2023-11-18T08:15:43;22.30;46.00
81895;DHT22;71358;45.642;13.758;2023-11-18T08:18:29;22.30;46.00
81895;DHT22;71358;45.642;13.758;2023-11-18T08:21:15;22.30;46.00
81895;DHT22;71358;45.642;13.758;2023-11-18T08:24:00;22.30;45.80
81895;DHT22;71358;45.642;13.758;2023-11-18T08:26:46;22.30;45.70
81895;DHT22;71358;45.642;13.758;2023-11-18T08:29:32;22.30;45.60
81895;DHT22;71358;45.642;13.758;2023-11-18T08:32:17;22.30;45.50
81895;DHT22;71358;45.642;13.758;2023-11-18T08:35:01;22.30;45.40
81895;DHT22;71358;45.642;13.758;2023-11-18T08:37:47;22.30;45.40
81895;DHT22;71358;45.642;13.758;2023-11-18T08:40:32;22.30;45.30
81895;DHT22;71358;45.642;13.758;2023-11-18T08:43:16;22.30;45.40
81895;DHT22;71358;45.642;13.758;2023-11-18T08:46:01;22.30;45.70
81895;DHT22;71358;45.642;13.758;2023-11-18T08:48:45;22.30;46.00
81895;DHT22;71358;45.642;13.758;2023-11-18T08:51:32;22.30;46.10
81895;DHT22;71358;45.642;13.758;2023-11-18T08:54:18;22.30;46.20
81895;DHT22;71358;45.642;13.758;2023-11-18T08:57:09;22.30;46.30
81895;DHT22;71358;45.642;13.758;2023-11-18T09:00:10;22.30;46.50
81895;DHT22;71358;45.642;13.758;2023-11-18T09:03:16;22.30;46.60
81895;DHT22;71358;45.642;13.758;2023-11-18T09:06:10;22.30;46.60
81895;DHT22;71358;45.642;13.758;2023-11-18T09:09:09;22.30;46.50
81895;DHT22;71358;45.642;13.758;2023-11-18T09:11:55;22.30;46.40
81895;DHT22;71358;45.642;13.758;2023-11-18T09:14:40;22.30;46.30
81895;DHT22;71358;45.642;13.758;2023-11-18T09:17:27;22.30;46.30
81895;DHT22;71358;45.642;13.758;2023-11-18T09:20:11;22.30;46.20
81895;DHT22;71358;45.642;13.758;2023-11-18T09:22:56;22.30;46.20
81895;DHT22;71358;45.642;13.758;2023-11-18T09:25:41;22.30;46.30
81895;DHT22;71358;45.642;13.758;2023-11-18T09:28:26;22.30;46.50
81895;DHT22;71358;45.642;13.758;2023-11-18T09:31:14;22.30;46.70
81895;DHT22;71358;45.642;13.758;2023-11-18T09:33:58;22.30;46.90
81895;DHT22;71358;45.642;13.758;2023-11-18T09:36:46;22.30;47.10
81895;DHT22;71358;45.642;13.758;2023-11-18T09:39:33;22.30;47.30
81895;DHT22;71358;45.642;13.758;2023-11-18T09:42:21;22.30;47.30
81895;DHT22;71358;45.642;13.758;2023-11-18T09:45:08;22.30;47.30
81895;DHT22;71358;45.642;13.758;2023-11-18T09:47:59;22.30;47.50
81895;DHT22;71358;45.642;13.758;2023-11-18T09:50:47;22.40;47.60
81895;DHT22;71358;45.642;13.758;2023-11-18T09:53:38;22.30;47.60
81895;DHT22;71358;45.642;13.758;2023-11-18T09:59:32;22.40;47.60
81895;DHT22;71358;45.642;13.758;2023-11-18T10:02:23;22.40;47.80
81895;DHT22;71358;45.642;13.758;2023-11-18T10:05:09;22.40;47.80
81895;DHT22;71358;45.642;13.758;2023-11-18T10:07:56;22.40;47.80
81895;DHT22;71358;45.642;13.758;2023-11-18T10:10:45;22.40;47.70
81895;DHT22;71358;45.642;13.758;2023-11-18T10:13:30;22.40;47.50
81895;DHT22;71358;45.642;13.758;2023-11-18T10:16:14;22.40;46.90
81895;DHT22;71358;45.642;13.758;2023-11-18T10:19:00;22.40;46.20
81895;DHT22;71358;45.642;13.758;2023-11-18T10:21:52;22.40;45.30
81895;DHT22;71358;45.642;13.758;2023-11-18T10:24:46;22.30;44.50
81895;DHT22;71358;45.642;13.758;2023-11-18T10:27:31;22.30;41.70
81895;DHT22;71358;45.642;13.758;2023-11-18T10:30:16;22.10;39.70
81895;DHT22;71358;45.642;13.758;2023-11-18T10:33:03;21.80;38.30
81895;DHT22;71358;45.642;13.758;2023-11-18T10:35:51;21.60;37.90
81895;DHT22;71358;45.642;13.758;2023-11-18T10:38:40;21.40;37.80
81895;DHT22;71358;45.642;13.758;2023-11-18T10:41:30;21.10;37.70
81895;DHT22;71358;45.642;13.758;2023-11-18T10:44:15;20.90;37.80
81895;DHT22;71358;45.642;13.758;2023-11-18T10:47:00;20.80;37.90
81895;DHT22;71358;45.642;13.758;2023-11-18T10:49:45;20.70;38.20
81895;DHT22;71358;45.642;13.758;2023-11-18T10:52:31;20.50;39.60
81895;DHT22;71358;45.642;13.758;2023-11-18T10:55:18;20.60;41.10
81895;DHT22;71358;45.642;13.758;2023-11-18T10:58:03;20.70;41.90
81895;DHT22;71358;45.642;13.758;2023-11-18T11:00:54;20.80;42.30
81895;DHT22;71358;45.642;13.758;2023-11-18T11:03:53;21.00;42.80
81895;DHT22;71358;45.642;13.758;2023-11-18T11:06:45;21.00;43.40
81895;DHT22;71358;45.642;13.758;2023-11-18T11:09:36;21.20;44.10
81895;DHT22;71358;45.642;13.758;2023-11-18T11:12:23;21.20;44.80
81895;DHT22;71358;45.642;13.758;2023-11-18T11:15:12;21.30;45.30
81895;DHT22;71358;45.642;13.758;2023-11-18T11:18:08;21.40;45.70
81895;DHT22;71358;45.642;13.758;2023-11-18T11:24:01;21.60;46.30
81895;DHT22;71358;45.642;13.758;2023-11-18T11:27:10;21.70;46.60
81895;DHT22;71358;45.642;13.758;2023-11-18T11:30:20;21.80;46.60
81895;DHT22;71358;45.642;13.758;2023-11-18T11:33:59;21.80;46.50
81895;DHT22;71358;45.642;13.758;2023-11-18T11:36:40;21.90;46.50
81895;DHT22;71358;45.642;13.758;2023-11-18T11:39:26;21.90;46.50
81895;DHT22;71358;45.642;13.758;2023-11-18T11:42:15;21.80;46.50
81895;DHT22;71358;45.642;13.758;2023-11-18T11:45:02;21.80;46.60
81895;DHT22;71358;45.642;13.758;2023-11-18T11:47:48;21.80;46.70
81895;DHT22;71358;45.642;13.758;2023-11-18T11:50:35;21.80;46.80
81895;DHT22;71358;45.642;13.758;2023-11-18T11:53:24;21.80;46.90
81895;DHT22;71358;45.642;13.758;2023-11-18T11:56:11;21.80;46.90
81895;DHT22;71358;45.642;13.758;2023-11-18T11:58:58;21.80;47.00
81895;DHT22;71358;45.642;13.758;2023-11-18T12:01:43;21.80;47.10
81895;DHT22;71358;45.642;13.758;2023-11-18T12:04:33;21.80;47.20
81895;DHT22;71358;45.642;13.758;2023-11-18T12:07:22;21.80;47.20
81895;DHT22;71358;45.642;13.758;2023-11-18T12:10:11;21.80;47.10
81895;DHT22;71358;45.642;13.758;2023-11-18T12:13:08;21.80;47.20
81895;DHT22;71358;45.642;13.758;2023-11-18T12:16:00;21.80;47.30
81895;DHT22;71358;45.642;13.758;2023-11-18T12:19:31;21.80;47.30
81895;DHT22;71358;45.642;13.758;2023-11-18T12:23:23;21.80;47.30
81895;DHT22;71358;45.642;13.758;2023-11-18T12:26:39;21.80;47.40
81895;DHT22;71358;45.642;13.758;2023-11-18T12:29:34;21.70;47.50
81895;DHT22;71358;45.642;13.758;2023-11-18T12:42:03;21.80;47.60
81895;DHT22;71358;45.642;13.758;2023-11-18T12:48:05;21.80;47.60
81895;DHT22;71358;45.642;13.758;2023-11-18T12:50:56;21.70;47.60
81895;DHT22;71358;45.642;13.758;2023-11-18T12:53:41;21.80;47.70
81895;DHT22;71358;45.642;13.758;2023-11-18T12:56:26;21.80;47.70
81895;DHT22;71358;45.642;13.758;2023-11-18T12:59:12;21.80;47.80
81895;DHT22;71358;45.642;13.758;2023-11-18T13:01:57;21.80;47.80
81895;DHT22;71358;45.642;13.758;2023-11-18T13:04:41;21.80;47.90
81895;DHT22;71358;45.642;13.758;2023-11-18T13:07:26;21.80;47.80
81895;DHT22;71358;45.642;13.758;2023-11-18T13:10:10;21.80;47.90
81895;DHT22;71358;45.642;13.758;2023-11-18T13:12:59;21.80;47.80
81895;DHT22;71358;45.642;13.758;2023-11-18T13:15:44;21.80;47.80
81895;DHT22;71358;45.642;13.758;2023-11-18T13:18:44;21.80;47.80
81895;DHT22;71358;45.642;13.758;2023-11-18T13:21:29;21.80;47.80
81895;DHT22;71358;45.642;13.758;2023-11-18T13:24:14;21.80;47.70
81895;DHT22;71358;45.642;13.758;2023-11-18T13:27:00;21.80;47.70
81895;DHT22;71358;45.642;13.758;2023-11-18T13:29:48;21.80;47.80
81895;DHT22;71358;45.642;13.758;2023-11-18T13:32:40;21.80;47.70
81895;DHT22;71358;45.642;13.758;2023-11-18T13:35:25;21.80;47.70
81895;DHT22;71358;45.642;13.758;2023-11-18T13:38:11;21.80;47.60
81895;DHT22;71358;45.642;13.758;2023-11-18T13:40:55;21.70;47.60
81895;DHT22;71358;45.642;13.758;2023-11-18T13:43:43;21.80;47.60
81895;DHT22;71358;45.642;13.758;2023-11-18T13:46:28;21.80;47.70
81895;DHT22;71358;45.642;13.758;2023-11-18T13:49:12;21.80;47.80
81895;DHT22;71358;45.642;13.758;2023-11-18T13:51:57;21.80;47.90
81895;DHT22;71358;45.642;13.758;2023-11-18T13:54:42;21.80;47.90
81895;DHT22;71358;45.642;13.758;2023-11-18T13:57:29;21.70;47.90
81895;DHT22;71358;45.642;13.758;2023-11-18T14:00:14;21.70;47.90
81895;DHT22;71358;45.642;13.758;2023-11-18T14:03:01;21.80;48.00
81895;DHT22;71358;45.642;13.758;2023-11-18T14:05:47;21.80;48.00
81895;DHT22;71358;45.642;13.758;2023-11-18T14:08:31;21.80;48.20
81895;DHT22;71358;45.642;13.758;2023-11-18T14:11:16;21.90;48.70
81895;DHT22;71358;45.642;13.758;2023-11-18T14:14:00;21.90;49.40
81895;DHT22;71358;45.642;13.758;2023-11-18T14:16:45;21.90;49.60
81895;DHT22;71358;45.642;13.758;2023-11-18T14:19:29;22.00;50.00
81895;DHT22;71358;45.642;13.758;2023-11-18T14:22:14;22.00;50.50
81895;DHT22;71358;45.642;13.758;2023-11-18T14:24:58;22.00;50.70
81895;DHT22;71358;45.642;13.758;2023-11-18T14:27:43;22.00;51.10
81895;DHT22;71358;45.642;13.758;2023-11-18T14:30:27;22.10;51.30
81895;DHT22;71358;45.642;13.758;2023-11-18T14:33:12;22.10;51.40
81895;DHT22;71358;45.642;13.758;2023-11-18T14:35:57;22.10;51.50
81895;DHT22;71358;45.642;13.758;2023-11-18T14:38:41;22.10;51.60
81895;DHT22;71358;45.642;13.758;2023-11-18T14:41:25;22.10;52.10
81895;DHT22;71358;45.642;13.758;2023-11-18T14:44:10;22.10;52.20
81895;DHT22;71358;45.642;13.758;2023-11-18T14:46:55;22.10;52.20
81895;DHT22;71358;45.642;13.758;2023-11-18T14:49:42;22.20;52.40
81895;DHT22;71358;45.642;13.758;2023-11-18T14:52:26;22.20;52.70
81895;DHT22;71358;45.642;13.758;2023-11-18T14:55:11;22.20;52.80
81895;DHT22;71358;45.642;13.758;2023-11-18T14:58:01;22.20;53.00
81895;DHT22;71358;45.642;13.758;2023-11-18T15:00:48;22.20;53.10
81895;DHT22;71358;45.642;13.758;2023-11-18T15:03:36;22.20;53.50
81895;DHT22;71358;45.642;13.758;2023-11-18T15:06:27;22.30;53.90
81895;DHT22;71358;45.642;13.758;2023-11-18T15:09:12;22.30;54.20
81895;DHT22;71358;45.642;13.758;2023-11-18T15:11:56;22.30;54.30
81895;DHT22;71358;45.642;13.758;2023-11-18T15:14:41;22.30;54.40
81895;DHT22;71358;45.642;13.758;2023-11-18T15:17:26;22.30;54.50
81895;DHT22;71358;45.642;13.758;2023-11-18T15:20:12;22.30;54.90
81895;DHT22;71358;45.642;13.758;2023-11-18T15:22:56;22.30;55.40
81895;DHT22;71358;45.642;13.758;2023-11-18T15:25:41;22.30;55.40
81895;DHT22;71358;45.642;13.758;2023-11-18T15:28:26;22.30;55.70
81895;DHT22;71358;45.642;13.758;2023-11-18T15:31:10;22.40;55.80
81895;DHT22;71358;45.642;13.758;2023-11-18T15:33:55;22.40;55.50
81895;DHT22;71358;45.642;13.758;2023-11-18T15:36:41;22.40;55.10
81895;DHT22;71358;45.642;13.758;2023-11-18T15:39:27;22.40;54.80
81895;DHT22;71358;45.642;13.758;2023-11-18T15:42:12;22.40;54.60
81895;DHT22;71358;45.642;13.758;2023-11-18T15:44:58;22.40;54.40
81895;DHT22;71358;45.642;13.758;2023-11-18T15:47:43;22.40;54.10
81895;DHT22;71358;45.642;13.758;2023-11-18T15:50:27;22.40;54.00
81895;DHT22;71358;45.642;13.758;2023-11-18T15:53:13;22.40;54.40
81895;DHT22;71358;45.642;13.758;2023-11-18T15:55:57;22.40;54.80
81895;DHT22;71358;45.642;13.758;2023-11-18T15:58:42;22.40;54.80
81895;DHT22;71358;45.642;13.758;2023-11-18T16:01:26;22.40;54.70
81895;DHT22;71358;45.642;13.758;2023-11-18T16:04:11;22.40;54.40
81895;DHT22;71358;45.642;13.758;2023-11-18T16:06:56;22.30;54.10
81895;DHT22;71358;45.642;13.758;2023-11-18T16:09:40;22.30;54.10
81895;DHT22;71358;45.642;13.758;2023-11-18T16:12:26;22.30;53.50
81895;DHT22;71358;45.642;13.758;2023-11-18T16:15:14;22.30;53.30
81895;DHT22;71358;45.642;13.758;2023-11-18T16:18:00;22.30;52.90
81895;DHT22;71358;45.642;13.758;2023-11-18T16:20:47;22.30;52.70
81895;DHT22;71358;45.642;13.758;2023-11-18T16:23:32;22.30;52.60
81895;DHT22;71358;45.642;13.758;2023-11-18T16:26:19;22.30;52.60
81895;DHT22;71358;45.642;13.758;2023-11-18T16:29:04;22.30;52.20
81895;DHT22;71358;45.642;13.758;2023-11-18T16:31:48;22.40;51.80
81895;DHT22;71358;45.642;13.758;2023-11-18T16:34:33;22.40;51.60
81895;DHT22;71358;45.642;13.758;2023-11-18T16:37:18;22.40;51.80
81895;DHT22;71358;45.642;13.758;2023-11-18T16:40:02;22.40;52.10
81895;DHT22;71358;45.642;13.758;2023-11-18T16:42:49;22.40;52.00
81895;DHT22;71358;45.642;13.758;2023-11-18T16:45:33;22.40;49.30
81895;DHT22;71358;45.642;13.758;2023-11-18T16:48:18;22.40;48.70
81895;DHT22;71358;45.642;13.758;2023-11-18T16:51:03;22.40;50.40
81895;DHT22;71358;45.642;13.758;2023-11-18T16:53:47;22.40;49.70
81895;DHT22;71358;45.642;13.758;2023-11-18T16:56:33;22.40;49.40
81895;DHT22;71358;45.642;13.758;2023-11-18T16:59:18;22.40;50.90
81895;DHT22;71358;45.642;13.758;2023-11-18T17:02:04;22.40;51.70
81895;DHT22;71358;45.642;13.758;2023-11-18T17:04:50;22.40;51.80
81895;DHT22;71358;45.642;13.758;2023-11-18T17:07:35;22.50;51.90
81895;DHT22;71358;45.642;13.758;2023-11-18T17:10:19;22.50;51.90
81895;DHT22;71358;45.642;13.758;2023-11-18T17:13:04;22.50;51.90
81895;DHT22;71358;45.642;13.758;2023-11-18T17:15:52;22.50;51.90
81895;DHT22;71358;45.642;13.758;2023-11-18T17:18:37;22.50;52.00
81895;DHT22;71358;45.642;13.758;2023-11-18T17:21:22;22.50;52.00
81895;DHT22;71358;45.642;13.758;2023-11-18T17:24:06;22.50;52.10
81895;DHT22;71358;45.642;13.758;2023-11-18T17:26:54;22.50;51.50
81895;DHT22;71358;45.642;13.758;2023-11-18T17:29:40;22.60;51.60
81895;DHT22;71358;45.642;13.758;2023-11-18T17:32:24;22.60;51.90
81895;DHT22;71358;45.642;13.758;2023-11-18T17:35:10;22.50;52.20
81895;DHT22;71358;45.642;13.758;2023-11-18T17:37:58;22.50;52.30